Chia-i, Taiwan
Current Conditions -  °F | °C
As of 11:30 AM on Sunday 26 Oct 2014 (Local Time) from RCMQ Reporting Station
Scattered Clouds Scattered Clouds  
Wind Chill: 82°   Ceiling: Unl
Heat Index: 86°   Visibility: 5mi
Dew Point: 70°   Wind: 8mph
Humidity: 66%   Direction: 350°N
Pressure: 30.03"   Gusts: NA
Location:  23.48°N, 120.44°E
Report Text: RCMQ 260330Z 35007KT 8000 FEW012 SCT025 28/21 Q1017 NOSIG RMK A3004
Loading
Personal Weather Stations






























Interactive Weather Map New forecast layout! Learn more

10-Day Weather Forecast

Advertisements
Track Severe Weather on mobile